Station: PORT AUGUSTA AP

  Atmospheric Gas Attenuation - ITU Rec 676-11   --------------- db/100km ---------------
Date Time Temp RH % AH g/m3 Dew Point Wind Direction Speed kph Gust kph Barometer mB Rainfall Since 9am 24GHz 47GHz 76GHz 122GHz 134GHz 241GHz
27 13:40 20.7 32 5.76 3.4 9 11 1023.2 0 13.3 20.3 27.0 70.3 58.2 198.3
27 13:30 20.3 32 5.63 3.1 11 20 1023.5 0 13.1 20.2 26.7 69.5 57.1 194.3
27 13:20 19.8 32 5.47 2.6 15 17 1023.6 0 12.7 20.1 26.4 68.5 55.7 189.3
27 13:10 19.2 33 5.44 2.6 9 11 1023.7 0 12.7 20.2 26.5 68.8 55.8 189.6
27 13:00 18.9 32 5.18 1.9 11 17 1023.8 0 12.2 19.9 25.7 66.7 53.2 180.2
27 12:50 19.1 35 5.74 3.3 11 13 1023.9 0 13.3 20.7 27.5 71.5 59.2 201.5
27 12:40 18.6 33 5.25 2 9 11 1024.1 0 12.3 20.1 26.0 67.6 54.1 183.6
27 12:30 19.1 34 5.57 2.9 13 20 1024.4 0 13.0 20.4 27.0 70.1 57.3 194.9
27 12:20 18.7 35 5.6 2.9 19 22 1024.5 0 13.0 20.6 27.2 70.7 58.0 197.1
27 12:10 19.2 35 5.77 3.4 13 17 1024.6 0 13.4 20.7 27.6 71.8 59.5 202.5
27 12:00 18.5 35 5.54 2.8 9 15 1024.8 0 12.9 20.6 27.1 70.3 57.4 195.3
27 11:50 19 37 6.03 4 6 9 1024.8 0 13.9 21.1 28.6 74.3 62.6 213.3
27 11:40 18.7 38 6.08 4.1 9 13 1024.9 0 14.0 21.3 28.8 75.1 63.4 216.1
27 11:30 18.2 41 6.37 4.7 15 20 1025.2 0 14.7 21.8 30.0 78.2 67.1 229.2
27 11:20 17.7 40 6.03 3.9 13 15 1025.2 0 14.0 21.4 29.0 75.6 63.6 216.8
27 11:10 17.9 41 6.26 4.5 13 17 1025.4 0 14.5 21.7 29.8 77.5 66.1 225.6
27 11:00 17.6 40 6 3.9 13 22 1025.7 0 13.9 21.4 29.0 75.4 63.4 215.9
27 10:50 17.9 41 6.26 4.5 17 20 1025.8 0 14.5 21.7 29.8 77.6 66.1 225.7
27 10:40 16.8 42 6 3.8 13 15 1026 0 13.9 21.6 29.3 76.2 64.0 218.1
27 10:30 17.3 43 6.33 4.6 13 20 1026.1 0 14.6 22.0 30.3 78.8 67.4 230.2
27 10:20 16.7 43 6.11 4.1 11 13 1026.2 0 14.2 21.8 29.7 77.3 65.4 222.9
27 10:10 16.4 46 6.42 4.8 17 19 1026.1 0 14.8 22.3 30.9 80.6 69.3 236.5
27 10:00 16.3 46 6.38 4.7 15 22 1026.4 0 14.8 22.3 30.8 80.3 68.9 235.2
27 09:50 16 46 6.27 4.4 11 15 1026.3 0 14.5 22.2 30.5 79.5 67.8 231.5
27 09:40 15.9 46 6.23 4.3 11 13 1026.4 0 14.5 22.2 30.4 79.3 67.5 230.1
27 09:30 15.6 50 6.65 5.2 13 20 1026.5 0 15.4 22.9 32.1 83.6 72.8 248.7
27 09:20 15.4 51 6.7 5.3 15 19 1026.5 0 15.5 23.0 32.3 84.3 73.5 251.4
27 09:10 15.7 48 6.42 4.7 22 24 1026.4 0 14.9 22.5 31.2 81.3 69.9 238.6
27 09:00 15.6 49 6.52 4.9 20 28 1026.5 0 15.1 22.7 31.6 82.4 71.2 243.2
27 08:50 15 50 6.41 4.7 20 22 1026.4 0 14.9 22.7 31.4 81.9 70.4 240.3
27 08:40 15.1 51 6.58 5 17 19 1026.4 0 15.2 22.9 32.0 83.5 72.4 247.2
27 08:30 14.6 55 6.88 5.7 15 22 1026.4 0 15.9 23.5 33.3 87.0 76.5 261.7
27 08:20 13.4 59 6.86 5.6 15 17 1026.4 0 15.9 23.7 33.7 88.1 77.4 264.8
27 08:10 13.1 60 6.85 5.5 13 15 1026.5 0 15.9 23.8 33.8 88.3 77.6 265.3
27 08:00 12.6 61 6.75 5.3 17 22 1026.5 0 15.7 23.8 33.7 87.8 76.8 262.6
27 07:50 12.4 63 6.88 5.6 15 20 1026.4 0 16.0 24.0 34.2 89.4 78.7 269.0
27 07:40 12 68 7.25 6.3 15 17 1026.4 0 16.8 24.7 35.9 93.7 83.8 287.1
27 07:30 11.4 74 7.6 6.9 15 20 1026.5 0 17.6 25.5 37.5 98.2 89.1 305.4
27 07:20 10.8 79 7.81 7.3 13 13 1026.4 0 18.0 26.0 38.7 101.2 92.6 317.6
27 07:10 10 82 7.71 7.1 11 13 1026.2 0 17.9 26.0 38.6 101.1 92.2 316.1
27 07:00 9.2 86 7.68 7 7 11 1026.2 0 17.8 26.2 38.9 101.8 92.7 317.9
27 06:50 8.2 88 7.37 6.3 6 7 1026.1 0 17.2 26.0 38.1 99.6 89.7 306.9
27 06:40 7 89 6.9 5.3 7 7 1025.9 0 16.2 25.5 36.7 95.9 84.5 288.9
27 06:30 6.3 88 6.52 4.5 9 11 1025.9 0 15.5 25.1 35.4 92.5 80.1 273.2
27 06:20 6.1 88 6.43 4.3 7 9 1025.6 0 15.3 25.0 35.1 91.7 79.1 269.5
27 06:10 5.8 88 6.31 4 11 11 1025.5 0 15.0 24.9 34.8 90.7 77.7 264.8
27 06:00 6 88 6.39 4.2 9 11 1025.5 0 15.2 25.0 35.0 91.4 78.6 267.9
27 05:50 5.9 88 6.35 4.1 9 11 1025.3 0 15.1 24.9 34.9 91.1 78.1 266.3
27 05:40 6.2 88 6.48 4.4 11 11 1025.3 0 15.4 25.0 35.3 92.1 79.6 271.5
27 05:30 6.4 88 6.56 4.6 9 13 1025.3 0 15.5 25.1 35.5 92.8 80.5 274.6
27 05:10 6.4 89 6.64 4.7 9 9 1024.9 0 15.7 25.2 35.8 93.6 81.6 278.3
27 04:40 5.4 87 6.07 3.4 6 6 1024.3 0 14.5 24.6 33.9 88.5 74.8 254.4
27 04:30 5.9 86 6.2 3.7 7 9 1024.4 0 14.8 24.6 34.2 89.3 76.1 259.0
27 04:20 6.6 86 6.5 4.4 9 9 1024.2 0 15.4 24.9 35.1 91.8 79.4 270.8
27 04:10 7.3 86 6.8 5.1 6 7 1024.2 0 16.0 25.2 36.1 94.2 82.7 282.6
27 04:00 6.6 85 6.42 4.3 0 0 1024.4 0 15.2 24.8 34.8 90.9 78.3 267.0
27 03:50 7.2 85 6.68 4.9 0 0 1024.3 0 15.8 25.1 35.6 93.1 81.2 277.3
27 03:40 8 86 7.11 5.8 4 6 1024.2 0 16.7 25.5 37.0 96.8 86.2 294.8
27 03:30 8 86 7.11 5.8 7 7 1024.3 0 16.7 25.5 37.0 96.8 86.2 294.8
27 03:20 7.4 84 6.68 4.9 7 9 1024.2 0 15.8 25.0 35.5 92.8 81.0 276.5
27 03:10 7.9 84 6.9 5.4 9 9 1024.2 0 16.2 25.2 36.2 94.6 83.4 285.2
27 03:00 8.2 86 7.21 6 11 13 1024.3 0 16.9 25.7 37.3 97.7 87.3 298.8
27 02:50 7.7 86 6.98 5.5 11 13 1024.1 0 16.4 25.4 36.6 95.7 84.7 289.7
27 02:40 7.8 85 6.94 5.4 13 13 1024 0 16.3 25.3 36.4 95.2 84.1 287.4
27 02:30 8.3 83 7 5.6 11 15 1024 0 16.4 25.3 36.4 95.2 84.3 288.4
27 02:20 8.8 82 7.14 5.9 9 11 1023.9 0 16.7 25.4 36.8 96.1 85.7 293.1
27 02:10 9 81 7.14 5.9 11 13 1023.9 0 16.7 25.3 36.7 95.9 85.5 292.4
27 02:00 9.2 81 7.24 6.1 9 13 1024.1 0 16.9 25.4 37.0 96.7 86.6 296.4
27 01:50 8.9 83 7.27 6.2 7 9 1024 0 17.0 25.5 37.3 97.4 87.3 298.9
27 01:40 8.4 82 6.96 5.5 6 7 1024 0 16.3 25.2 36.2 94.7 83.7 286.1
27 01:30 8.5 82 7 5.6 9 11 1024.2 0 16.4 25.2 36.3 95.0 84.1 287.7
27 01:20 9 81 7.14 5.9 7 9 1024.2 0 16.7 25.3 36.7 95.9 85.5 292.5
27 01:10 9.3 81 7.28 6.2 7 9 1024.2 0 17.0 25.4 37.1 97.1 87.0 297.9
27 01:00 9.2 81 7.24 6.1 4 7 1024.3 0 16.9 25.4 37.0 96.8 86.6 296.4
27 00:50 9.4 82 7.42 6.5 6 6 1024.2 0 17.3 25.7 37.6 98.5 88.8 304.2
27 00:40 9.2 79 7.06 5.8 6 7 1024.2 0 16.5 25.1 36.3 94.8 84.2 288.0
27 00:30 9.8 79 7.33 6.3 11 15 1024.3 0 17.0 25.4 37.1 97.0 87.1 298.4
27 00:20 9.5 80 7.28 6.2 11 13 1024.1 0 17.0 25.4 37.0 96.8 86.8 297.1
27 00:10 9.8 79 7.33 6.3 11 13 1024.2 0 17.0 25.4 37.1 97.0 87.1 298.4
27 00:00 10.2 77 7.33 6.4 15 19 1024.2 0 17.0 25.3 36.9 96.5 86.7 296.9
26 23:50 10.7 74 7.27 6.3 15 19 1024 0 16.9 25.0 36.4 95.2 85.3 292.2
26 23:40 11.1 73 7.35 6.5 19 22 1024 0 17.0 25.0 36.6 95.6 85.9 294.4
26 23:30 11.2 73 7.4 6.5 20 24 1024 0 17.1 25.1 36.7 96.0 86.5 296.3
26 23:20 11.3 73 7.45 6.6 20 24 1024 0 17.2 25.2 36.9 96.4 87.0 298.2
26 23:10 11.3 73 7.45 6.6 19 22 1024.1 0 17.2 25.2 36.9 96.4 87.0 298.3
26 23:00 11.3 73 7.45 6.6 19 22 1024.2 0 17.2 25.2 36.9 96.4 87.1 298.3
26 22:50 11.4 74 7.6 6.9 17 22 1024.1 0 17.6 25.4 37.4 97.9 88.9 304.8
26 22:40 11.4 74 7.6 6.9 17 20 1024.1 0 17.6 25.4 37.4 97.9 88.9 304.8
26 22:30 11.3 75 7.65 7 17 22 1024.2 0 17.7 25.5 37.7 98.6 89.7 307.6
26 22:20 11.5 74 7.64 7 19 22 1024.3 0 17.6 25.4 37.5 98.2 89.3 306.4
26 22:10 11.5 74 7.64 7 17 20 1024.3 0 17.6 25.4 37.5 98.2 89.3 306.4
26 22:00 11.5 75 7.75 7.2 17 22 1024.4 0 17.9 25.6 38.0 99.4 90.8 311.5
26 21:50 11.7 75 7.85 7.4 15 17 1024.3 0 18.1 25.7 38.3 100.3 91.9 315.3
26 21:40 11.8 75 7.89 7.5 17 20 1024.3 0 18.2 25.7 38.4 100.6 92.3 316.8
26 21:30 11.7 77 8.05 7.8 19 24 1024.3 0 18.5 26.0 39.1 102.4 94.6 324.7
26 21:20 11.8 75 7.89 7.5 20 24 1024.2 0 18.2 25.7 38.4 100.5 92.3 316.8
26 21:10 11.6 73 7.59 6.9 13 17 1024.2 0 17.5 25.3 37.3 97.6 88.6 303.6
26 21:00 11.8 72 7.58 6.9 15 22 1024.3 0 17.5 25.2 37.2 97.2 88.2 302.4
26 20:50 11.7 70 7.32 6.4 15 19 1024.2 0 16.9 24.8 36.2 94.6 84.9 290.8
26 20:40 11.8 70 7.37 6.5 17 20 1024.2 0 17.0 24.9 36.3 95.0 85.5 292.7

Last Refresh: 27-Sep-2020 13:53:05

Most of the information presented on this site is sourced from the Bureau of Meteorology.  Copyright in all material sourced from the Bureau of Meteorology resides with the Commonwealth of Australia.